createdAt,value
2019-03-19T07:22:25.318Z,101816.04
2019-03-19T08:09:25.983Z,101877.44
2019-03-19T08:12:10.710Z,101885.38
2019-03-19T08:15:26.302Z,101888.43
2019-03-19T08:21:29.978Z,101887.89
2019-03-19T08:28:00.370Z,101900.22
2019-03-19T08:43:57.197Z,101926.17
2019-03-19T08:54:11.083Z,101934.23
2019-03-19T09:09:20.280Z,101962.72
2019-03-19T09:16:01.097Z,101977.30
2019-03-19T09:41:01.404Z,102018.00
2019-03-19T09:47:14.379Z,102010.03
2019-03-19T09:50:16.829Z,102015.63
2019-03-19T09:53:00.849Z,102022.94
2019-03-19T09:55:38.668Z,102026.31
2019-03-19T09:58:36.174Z,102028.42
2019-03-19T10:01:24.180Z,102028.01
2019-03-19T10:04:12.546Z,102033.89
2019-03-19T10:10:27.819Z,102043.30
2019-03-19T10:13:05.575Z,102045.72
2019-03-19T10:15:58.211Z,102060.23
2019-03-19T10:18:47.803Z,102060.37
2019-03-19T10:24:15.477Z,102074.13
2019-03-19T10:30:27.479Z,102071.27
2019-03-19T10:32:48.784Z,102077.62
2019-03-19T10:35:30.045Z,102075.69
2019-03-19T10:38:09.497Z,102088.45
2019-03-19T10:44:06.928Z,102079.03
2019-03-19T10:50:27.490Z,102081.59
2019-03-19T10:53:13.780Z,102083.36
2019-03-19T10:55:46.063Z,102089.67
2019-03-19T11:01:42.271Z,102096.64
2019-03-19T11:04:31.371Z,102094.20
2019-03-19T11:25:55.914Z,102120.10
2019-03-19T11:28:41.053Z,102121.86
2019-03-19T11:31:53.760Z,102112.77
2019-03-19T11:38:13.808Z,102122.77
2019-03-19T11:44:49.481Z,102121.14
2019-03-19T11:51:06.073Z,102135.62
2019-03-19T12:11:53.869Z,102139.95
2019-03-19T12:31:02.809Z,102169.05
2019-03-19T12:59:31.800Z,102202.22
2019-03-19T13:05:22.482Z,102211.68
2019-03-19T13:11:11.712Z,102220.38
2019-03-19T13:13:42.960Z,102223.48
2019-03-19T13:16:17.180Z,102235.70
2019-03-19T13:18:48.416Z,102235.41
2019-03-19T13:21:20.332Z,102230.06
2019-03-19T13:23:51.495Z,102233.75
2019-03-19T13:26:23.210Z,102233.90
2019-03-19T13:28:54.471Z,102232.59
2019-03-19T13:31:27.841Z,102240.14
2019-03-19T13:33:59.923Z,102240.06
2019-03-19T13:45:51.756Z,102256.08
2019-03-19T13:48:32.202Z,102255.73
2019-03-19T13:57:21.934Z,102264.23
2019-03-19T14:01:59.828Z,102258.66
2019-03-19T14:06:58.760Z,102274.02
2019-03-19T14:09:35.776Z,102282.33
2019-03-19T14:18:58.703Z,102281.81
2019-03-19T14:21:26.692Z,102294.71
2019-03-19T14:23:57.606Z,102298.97
2019-03-19T14:26:29.677Z,102298.49
2019-03-19T14:29:00.522Z,102294.91
2019-03-19T14:31:32.321Z,102302.54
2019-03-19T14:34:03.210Z,102303.43
2019-03-19T14:36:35.052Z,102312.20
2019-03-19T14:39:10.784Z,102310.06
2019-03-19T14:41:41.744Z,102314.07
2019-03-19T14:44:15.517Z,102322.02
2019-03-19T14:46:46.467Z,102326.78
2019-03-19T14:49:17.487Z,102327.77
2019-03-19T14:51:48.494Z,102339.74
2019-03-19T14:54:19.368Z,102328.06
2019-03-19T14:56:50.289Z,102324.69
2019-03-19T14:59:21.162Z,102332.89
2019-03-19T15:01:52.088Z,102324.64
2019-03-19T15:04:24.602Z,102332.21
2019-03-19T15:06:56.431Z,102338.12
2019-03-19T15:09:27.324Z,102345.91
2019-03-19T15:11:58.238Z,102347.00
2019-03-19T15:14:29.128Z,102346.11
2019-03-19T15:17:04.772Z,102356.95
2019-03-19T15:19:32.703Z,102361.06
2019-03-19T15:22:04.530Z,102365.73
2019-03-19T15:24:35.423Z,102381.06
2019-03-19T15:27:06.360Z,102382.38
2019-03-19T15:29:37.262Z,102385.69
2019-03-19T15:32:08.202Z,102392.92
2019-03-19T15:34:39.135Z,102396.29
2019-03-19T15:37:11.079Z,102396.39
2019-03-19T15:39:42.229Z,102390.30
2019-03-19T15:42:13.177Z,102403.18
2019-03-19T15:44:44.076Z,102401.61
2019-03-19T15:47:15.008Z,102398.23
2019-03-19T15:49:46.622Z,102422.84
2019-03-19T15:52:18.347Z,102423.63
2019-03-19T15:54:49.251Z,102436.45
2019-03-19T15:57:20.176Z,102440.11
2019-03-19T15:59:51.092Z,102445.80
2019-03-19T16:02:22.083Z,102450.17
2019-03-19T16:04:54.713Z,102463.94
2019-03-19T16:07:26.541Z,102463.57
2019-03-19T16:09:57.491Z,102463.32
2019-03-19T16:12:28.424Z,102475.94
2019-03-19T16:14:59.317Z,102480.74
2019-03-19T16:17:30.237Z,102485.23
2019-03-19T16:20:01.201Z,102481.47
2019-03-19T16:22:33.007Z,102500.30
2019-03-19T16:25:04.008Z,102496.84
2019-03-19T16:27:35.004Z,102502.09
2019-03-19T16:30:16.592Z,102510.05
2019-03-19T16:32:49.078Z,102509.15
2019-03-19T16:35:19.977Z,102507.91
2019-03-19T16:37:51.730Z,102515.46
2019-03-19T16:40:23.535Z,102514.24
2019-03-19T16:42:54.447Z,102514.27
2019-03-19T16:45:25.348Z,102519.52
2019-03-19T16:47:56.282Z,102525.40
2019-03-19T16:50:27.203Z,102526.82
2019-03-19T16:52:59.059Z,102539.52
2019-03-19T16:55:29.954Z,102544.38
2019-03-19T16:58:01.103Z,102543.59
2019-03-19T17:00:32.072Z,102548.42
2019-03-19T17:03:03.007Z,102551.50
2019-03-19T17:05:34.702Z,102559.05
2019-03-19T17:08:16.035Z,102568.70
2019-03-19T17:10:52.227Z,102571.38
2019-03-19T17:13:23.161Z,102574.48
2019-03-19T17:15:54.133Z,102577.12
2019-03-19T17:18:25.105Z,102578.05
2019-03-19T17:20:56.165Z,102575.90
2019-03-19T17:23:28.085Z,102584.67
2019-03-19T17:25:59.170Z,102584.27
2019-03-19T17:28:30.222Z,102593.44
2019-03-19T17:31:01.137Z,102586.45
2019-03-19T17:33:32.063Z,102592.14
2019-03-19T17:36:02.982Z,102596.08
2019-03-19T17:38:34.758Z,102588.70
2019-03-19T17:41:05.718Z,102590.50
2019-03-19T17:43:36.658Z,102594.44
2019-03-19T17:46:07.556Z,102603.19
2019-03-19T17:48:38.496Z,102602.80
2019-03-19T17:51:16.528Z,102608.07
2019-03-19T17:53:48.385Z,102609.41
2019-03-19T17:56:19.284Z,102610.30
2019-03-19T17:58:50.226Z,102613.81
2019-03-19T18:01:21.205Z,102619.07
2019-03-19T18:03:52.153Z,102623.86
2019-03-19T18:06:24.011Z,102624.77
2019-03-19T18:08:54.959Z,102625.66
2019-03-19T18:11:26.036Z,102632.65
2019-03-19T18:13:58.594Z,102628.73
2019-03-19T18:16:31.734Z,102635.75
2019-03-19T18:19:02.684Z,102633.16
2019-03-19T18:21:33.585Z,102641.42
2019-03-19T18:24:05.481Z,102649.27
2019-03-19T18:26:36.392Z,102656.70
2019-03-19T18:29:07.396Z,102657.59
2019-03-19T18:31:38.374Z,102665.44
2019-03-19T18:34:10.489Z,102661.08
2019-03-19T18:36:41.689Z,102665.89
2019-03-19T18:39:16.110Z,102672.41
2019-03-19T18:41:46.177Z,102681.59
2019-03-19T18:44:20.015Z,102677.66
2019-03-19T18:46:55.541Z,102679.84
2019-03-19T18:49:26.465Z,102679.39
2019-03-19T18:51:57.381Z,102674.63
2019-03-19T18:54:29.188Z,102678.95
2019-03-19T18:57:01.123Z,102693.33
2019-03-19T18:59:32.102Z,102693.33
2019-03-19T19:02:03.064Z,102693.76
2019-03-19T19:04:34.032Z,102692.47
2019-03-19T19:07:06.570Z,102700.28
2019-03-19T19:09:38.511Z,102704.64
2019-03-19T19:12:09.460Z,102703.33
2019-03-19T19:14:40.521Z,102708.11
2019-03-19T19:17:13.210Z,102713.31
2019-03-19T19:19:44.114Z,102713.75
2019-03-19T19:22:15.136Z,102715.06
2019-03-19T19:24:46.142Z,102713.75
2019-03-19T19:27:17.109Z,102713.75
2019-03-19T19:29:48.189Z,102716.34
2019-03-19T19:32:19.212Z,102714.63
2019-03-19T19:34:52.500Z,102719.39
2019-03-19T19:37:23.463Z,102718.95
2019-03-19T19:39:55.304Z,102719.81
2019-03-19T19:42:26.400Z,102725.46
2019-03-19T19:44:59.393Z,102731.54
2019-03-19T19:47:30.338Z,102731.98
2019-03-19T19:50:02.087Z,102726.31
2019-03-19T19:52:33.122Z,102721.96
2019-03-19T19:55:06.135Z,102720.21
2019-03-19T19:57:37.106Z,102727.59
2019-03-19T20:00:11.259Z,102724.97
2019-03-19T20:02:42.291Z,102733.61
2019-03-19T20:05:13.340Z,102733.61
2019-03-19T20:07:46.039Z,102741.02
2019-03-19T20:10:25.289Z,102741.87
2019-03-19T20:13:12.185Z,102725.28
2019-03-19T20:15:29.001Z,102725.28
2019-03-19T20:17:59.912Z,102733.12
2019-03-19T20:20:34.409Z,102728.33
2019-03-19T20:23:05.340Z,102742.25
2019-03-19T20:25:37.191Z,102742.25
2019-03-19T20:28:08.198Z,102748.73
2019-03-19T20:30:39.233Z,102748.73
2019-03-19T20:33:10.249Z,102751.34
2019-03-19T20:35:41.250Z,102754.38
2019-03-19T20:38:12.311Z,102750.02
2019-03-19T20:40:44.312Z,102746.09
2019-03-19T20:43:15.248Z,102741.70
2019-03-19T20:45:46.319Z,102747.36
2019-03-19T20:48:17.390Z,102748.64
2019-03-19T20:50:48.374Z,102748.64
2019-03-19T20:53:19.280Z,102756.89
2019-03-19T20:55:51.076Z,102753.83
2019-03-19T20:58:21.974Z,102752.92
2019-03-19T21:00:52.997Z,102752.92
2019-03-19T21:03:23.902Z,102755.95
2019-03-19T21:05:54.913Z,102760.72
2019-03-19T21:08:26.728Z,102757.27
2019-03-19T21:10:57.808Z,102764.17
2019-03-19T21:13:28.792Z,102764.17
2019-03-19T21:15:59.795Z,102766.75
2019-03-19T21:18:30.703Z,102757.59
2019-03-19T21:21:01.646Z,102757.59
2019-03-19T21:23:32.652Z,102763.27
2019-03-19T21:26:04.523Z,102764.98
2019-03-19T21:28:35.432Z,102767.14
2019-03-19T21:31:06.371Z,102769.78
2019-03-19T21:33:37.281Z,102784.08
2019-03-19T21:36:08.206Z,102782.78
2019-03-19T21:38:39.114Z,102781.47
2019-03-19T21:41:10.991Z,102785.38
2019-03-19T21:43:41.908Z,102790.56
2019-03-19T21:46:12.866Z,102790.56
2019-03-19T21:48:43.776Z,102795.36
2019-03-19T21:51:14.710Z,102791.87
2019-03-19T21:53:45.615Z,102791.87
2019-03-19T21:56:17.417Z,102797.05
2019-03-19T21:58:48.334Z,102797.05
2019-03-19T22:01:19.297Z,102802.71
2019-03-19T22:03:50.215Z,102798.34
2019-03-19T22:06:21.961Z,102798.34
2019-03-19T22:08:52.916Z,102801.41
2019-03-19T22:11:24.691Z,102794.44
2019-03-19T22:13:55.606Z,102789.23
2019-03-19T22:16:26.545Z,102786.63
2019-03-19T22:19:01.546Z,102790.98
2019-03-19T22:21:32.474Z,102793.14
2019-03-19T22:24:03.386Z,102800.11
2019-03-19T22:26:35.349Z,102796.63
2019-03-19T22:29:06.262Z,102797.47
2019-03-19T22:31:37.191Z,102799.65
2019-03-19T22:34:13.978Z,102794.86
2019-03-19T22:36:40.731Z,102802.22
2019-03-19T22:39:11.628Z,102799.16
2019-03-19T22:41:43.387Z,102797.36
2019-03-19T22:44:14.294Z,102805.59
2019-03-19T22:46:45.234Z,102803.83
2019-03-19T22:49:16.133Z,102814.67
2019-03-19T22:51:47.067Z,102817.70
2019-03-19T22:54:17.967Z,102814.59
2019-03-19T22:56:49.111Z,102818.54
2019-03-19T22:59:20.098Z,102819.42
2019-03-19T23:01:51.018Z,102821.56
2019-03-19T23:04:27.266Z,102818.05
2019-03-19T23:06:54.554Z,102817.62
2019-03-19T23:09:26.362Z,102815.81
2019-03-19T23:11:57.308Z,102825.38
2019-03-19T23:14:28.215Z,102821.02
2019-03-19T23:16:59.259Z,102823.16
2019-03-19T23:19:30.151Z,102821.41
2019-03-19T23:22:01.087Z,102822.28
2019-03-19T23:24:31.993Z,102823.54
2019-03-19T23:27:02.929Z,102826.14
2019-03-19T23:29:33.894Z,102827.82
2019-03-19T23:32:04.818Z,102830.42
2019-03-19T23:34:38.689Z,102830.84
2019-03-19T23:37:08.470Z,102836.92
2019-03-19T23:39:39.378Z,102835.63
2019-03-19T23:42:10.318Z,102842.97
2019-03-19T23:44:41.232Z,102833.81
2019-03-19T23:47:12.168Z,102837.72
2019-03-19T23:49:43.055Z,102842.50
2019-03-19T23:52:14.005Z,102840.73
2019-03-19T23:54:44.899Z,102836.83
2019-03-19T23:57:15.850Z,102834.19
2019-03-19T23:59:46.757Z,102843.75
